sensor_id;sensor_type;location;lat;lon;timestamp;P1;durP1;ratioP1;P2;durP2;ratioP2
36449;SDS011;22475;51.390;7.180;2022-11-20T00:00:07;18.02;;;10.88;;
36449;SDS011;22475;51.390;7.180;2022-11-20T00:02:35;23.92;;;12.25;;
36449;SDS011;22475;51.390;7.180;2022-11-20T00:05:02;25.63;;;12.80;;
36449;SDS011;22475;51.390;7.180;2022-11-20T00:07:30;24.73;;;13.55;;
36449;SDS011;22475;51.390;7.180;2022-11-20T00:09:57;20.08;;;11.07;;
36449;SDS011;22475;51.390;7.180;2022-11-20T00:12:23;23.83;;;12.27;;
36449;SDS011;22475;51.390;7.180;2022-11-20T00:14:50;21.38;;;11.95;;
36449;SDS011;22475;51.390;7.180;2022-11-20T00:17:17;19.92;;;10.63;;
36449;SDS011;22475;51.390;7.180;2022-11-20T00:19:43;20.83;;;12.18;;
36449;SDS011;22475;51.390;7.180;2022-11-20T00:22:10;20.27;;;10.13;;
36449;SDS011;22475;51.390;7.180;2022-11-20T00:24:38;29.70;;;14.55;;
36449;SDS011;22475;51.390;7.180;2022-11-20T00:27:05;30.80;;;12.45;;
36449;SDS011;22475;51.390;7.180;2022-11-20T00:29:32;23.90;;;13.25;;
36449;SDS011;22475;51.390;7.180;2022-11-20T00:31:59;22.65;;;12.30;;
36449;SDS011;22475;51.390;7.180;2022-11-20T00:34:25;17.83;;;10.30;;
36449;SDS011;22475;51.390;7.180;2022-11-20T00:36:52;17.70;;;10.93;;
36449;SDS011;22475;51.390;7.180;2022-11-20T00:39:19;17.75;;;10.93;;
36449;SDS011;22475;51.390;7.180;2022-11-20T00:41:47;21.20;;;10.85;;
36449;SDS011;22475;51.390;7.180;2022-11-20T00:44:13;19.92;;;11.95;;
36449;SDS011;22475;51.390;7.180;2022-11-20T00:46:40;21.13;;;11.85;;
36449;SDS011;22475;51.390;7.180;2022-11-20T00:49:07;21.98;;;12.25;;
36449;SDS011;22475;51.390;7.180;2022-11-20T00:51:34;20.52;;;10.98;;
36449;SDS011;22475;51.390;7.180;2022-11-20T00:54:00;26.98;;;12.40;;
36449;SDS011;22475;51.390;7.180;2022-11-20T00:56:27;21.80;;;12.52;;
36449;SDS011;22475;51.390;7.180;2022-11-20T00:58:58;23.15;;;12.38;;
36449;SDS011;22475;51.390;7.180;2022-11-20T01:01:25;18.95;;;10.93;;
36449;SDS011;22475;51.390;7.180;2022-11-20T01:03:54;21.50;;;11.93;;
36449;SDS011;22475;51.390;7.180;2022-11-20T01:06:22;18.63;;;10.48;;
36449;SDS011;22475;51.390;7.180;2022-11-20T01:08:51;20.50;;;11.45;;
36449;SDS011;22475;51.390;7.180;2022-11-20T01:11:20;18.48;;;10.65;;
36449;SDS011;22475;51.390;7.180;2022-11-20T01:13:49;26.00;;;11.98;;
36449;SDS011;22475;51.390;7.180;2022-11-20T01:16:19;21.75;;;11.88;;
36449;SDS011;22475;51.390;7.180;2022-11-20T01:18:48;17.95;;;10.23;;
36449;SDS011;22475;51.390;7.180;2022-11-20T01:21:17;23.58;;;12.45;;
36449;SDS011;22475;51.390;7.180;2022-11-20T01:23:45;18.58;;;11.20;;
36449;SDS011;22475;51.390;7.180;2022-11-20T01:26:14;22.88;;;12.57;;
36449;SDS011;22475;51.390;7.180;2022-11-20T01:28:42;19.38;;;11.20;;
36449;SDS011;22475;51.390;7.180;2022-11-20T01:31:12;21.63;;;11.25;;
36449;SDS011;22475;51.390;7.180;2022-11-20T01:33:42;21.00;;;11.57;;
36449;SDS011;22475;51.390;7.180;2022-11-20T01:36:11;20.23;;;10.55;;
36449;SDS011;22475;51.390;7.180;2022-11-20T01:38:38;19.85;;;11.15;;
36449;SDS011;22475;51.390;7.180;2022-11-20T01:41:06;23.80;;;11.25;;
36449;SDS011;22475;51.390;7.180;2022-11-20T01:43:33;27.83;;;11.90;;
36449;SDS011;22475;51.390;7.180;2022-11-20T01:46:04;21.17;;;11.63;;
36449;SDS011;22475;51.390;7.180;2022-11-20T01:48:38;18.55;;;9.70;;
36449;SDS011;22475;51.390;7.180;2022-11-20T01:51:12;18.42;;;10.32;;
36449;SDS011;22475;51.390;7.180;2022-11-20T01:53:45;18.02;;;10.40;;
36449;SDS011;22475;51.390;7.180;2022-11-20T01:56:12;22.80;;;11.07;;
36449;SDS011;22475;51.390;7.180;2022-11-20T01:58:42;20.60;;;11.48;;
36449;SDS011;22475;51.390;7.180;2022-11-20T02:01:13;14.63;;;8.52;;
36449;SDS011;22475;51.390;7.180;2022-11-20T02:03:40;25.45;;;13.07;;
36449;SDS011;22475;51.390;7.180;2022-11-20T02:06:10;18.77;;;11.15;;
36449;SDS011;22475;51.390;7.180;2022-11-20T02:08:42;22.38;;;11.15;;
36449;SDS011;22475;51.390;7.180;2022-11-20T02:11:09;24.13;;;11.98;;
36449;SDS011;22475;51.390;7.180;2022-11-20T02:13:37;20.33;;;10.35;;
36449;SDS011;22475;51.390;7.180;2022-11-20T02:16:10;21.55;;;11.80;;
36449;SDS011;22475;51.390;7.180;2022-11-20T02:18:40;17.80;;;10.70;;
36449;SDS011;22475;51.390;7.180;2022-11-20T02:21:09;24.17;;;11.40;;
36449;SDS011;22475;51.390;7.180;2022-11-20T02:26:38;17.33;;;9.90;;
36449;SDS011;22475;51.390;7.180;2022-11-20T02:29:12;22.50;;;11.93;;
36449;SDS011;22475;51.390;7.180;2022-11-20T02:31:41;16.15;;;10.30;;
36449;SDS011;22475;51.390;7.180;2022-11-20T02:34:09;17.90;;;10.40;;
36449;SDS011;22475;51.390;7.180;2022-11-20T02:36:36;24.65;;;10.98;;
36449;SDS011;22475;51.390;7.180;2022-11-20T02:39:07;19.85;;;9.43;;
36449;SDS011;22475;51.390;7.180;2022-11-20T02:44:04;25.02;;;11.77;;
36449;SDS011;22475;51.390;7.180;2022-11-20T02:46:32;20.05;;;12.77;;
36449;SDS011;22475;51.390;7.180;2022-11-20T02:49:00;21.73;;;11.40;;
36449;SDS011;22475;51.390;7.180;2022-11-20T02:51:27;20.30;;;12.52;;
36449;SDS011;22475;51.390;7.180;2022-11-20T02:53:54;14.63;;;9.25;;
36449;SDS011;22475;51.390;7.180;2022-11-20T02:56:22;19.67;;;10.63;;
36449;SDS011;22475;51.390;7.180;2022-11-20T02:58:49;18.48;;;10.93;;
36449;SDS011;22475;51.390;7.180;2022-11-20T03:01:16;21.00;;;11.98;;
36449;SDS011;22475;51.390;7.180;2022-11-20T03:03:42;23.25;;;11.40;;
36449;SDS011;22475;51.390;7.180;2022-11-20T03:06:09;25.08;;;12.43;;
36449;SDS011;22475;51.390;7.180;2022-11-20T03:08:36;23.50;;;11.23;;
36449;SDS011;22475;51.390;7.180;2022-11-20T03:11:04;19.70;;;11.30;;
36449;SDS011;22475;51.390;7.180;2022-11-20T03:13:33;20.17;;;11.20;;
36449;SDS011;22475;51.390;7.180;2022-11-20T03:16:07;18.15;;;10.00;;
36449;SDS011;22475;51.390;7.180;2022-11-20T03:18:36;20.83;;;11.95;;
36449;SDS011;22475;51.390;7.180;2022-11-20T03:21:03;21.10;;;11.50;;
36449;SDS011;22475;51.390;7.180;2022-11-20T03:23:31;22.48;;;12.10;;
36449;SDS011;22475;51.390;7.180;2022-11-20T03:26:11;18.45;;;11.70;;
36449;SDS011;22475;51.390;7.180;2022-11-20T03:28:40;23.55;;;11.45;;
36449;SDS011;22475;51.390;7.180;2022-11-20T03:31:09;17.40;;;10.20;;
36449;SDS011;22475;51.390;7.180;2022-11-20T03:33:37;21.65;;;10.80;;
36449;SDS011;22475;51.390;7.180;2022-11-20T03:36:05;18.48;;;10.50;;
36449;SDS011;22475;51.390;7.180;2022-11-20T03:38:33;21.83;;;10.55;;
36449;SDS011;22475;51.390;7.180;2022-11-20T03:41:00;22.02;;;11.45;;
36449;SDS011;22475;51.390;7.180;2022-11-20T03:43:29;15.00;;;10.13;;
36449;SDS011;22475;51.390;7.180;2022-11-20T03:45:57;20.50;;;10.52;;
36449;SDS011;22475;51.390;7.180;2022-11-20T03:48:24;14.82;;;10.35;;
36449;SDS011;22475;51.390;7.180;2022-11-20T03:50:51;14.57;;;8.20;;
36449;SDS011;22475;51.390;7.180;2022-11-20T03:53:18;14.68;;;9.32;;
36449;SDS011;22475;51.390;7.180;2022-11-20T03:55:50;16.80;;;10.38;;
36449;SDS011;22475;51.390;7.180;2022-11-20T03:58:17;21.02;;;11.68;;
36449;SDS011;22475;51.390;7.180;2022-11-20T04:00:44;19.75;;;10.43;;
36449;SDS011;22475;51.390;7.180;2022-11-20T04:03:12;16.13;;;10.48;;
36449;SDS011;22475;51.390;7.180;2022-11-20T04:05:38;17.42;;;10.43;;
36449;SDS011;22475;51.390;7.180;2022-11-20T04:08:05;17.92;;;10.38;;
36449;SDS011;22475;51.390;7.180;2022-11-20T04:10:32;22.70;;;12.23;;
36449;SDS011;22475;51.390;7.180;2022-11-20T04:12:59;16.95;;;10.52;;
36449;SDS011;22475;51.390;7.180;2022-11-20T04:15:26;17.75;;;10.57;;
36449;SDS011;22475;51.390;7.180;2022-11-20T04:17:53;18.42;;;9.90;;
36449;SDS011;22475;51.390;7.180;2022-11-20T04:20:21;19.67;;;11.30;;
36449;SDS011;22475;51.390;7.180;2022-11-20T04:22:48;25.17;;;11.60;;
36449;SDS011;22475;51.390;7.180;2022-11-20T04:25:15;23.25;;;11.48;;
36449;SDS011;22475;51.390;7.180;2022-11-20T04:27:42;24.58;;;12.18;;
36449;SDS011;22475;51.390;7.180;2022-11-20T04:30:09;18.13;;;9.55;;
36449;SDS011;22475;51.390;7.180;2022-11-20T04:32:36;15.00;;;9.57;;
36449;SDS011;22475;51.390;7.180;2022-11-20T04:35:03;18.33;;;11.15;;
36449;SDS011;22475;51.390;7.180;2022-11-20T04:37:32;19.27;;;10.93;;
36449;SDS011;22475;51.390;7.180;2022-11-20T04:39:59;25.08;;;11.38;;
36449;SDS011;22475;51.390;7.180;2022-11-20T04:42:25;19.25;;;9.30;;
36449;SDS011;22475;51.390;7.180;2022-11-20T04:44:55;20.13;;;10.88;;
36449;SDS011;22475;51.390;7.180;2022-11-20T04:47:23;21.65;;;11.38;;
36449;SDS011;22475;51.390;7.180;2022-11-20T04:49:50;21.83;;;10.25;;
36449;SDS011;22475;51.390;7.180;2022-11-20T04:52:16;20.50;;;10.23;;
36449;SDS011;22475;51.390;7.180;2022-11-20T04:54:45;17.10;;;10.20;;
36449;SDS011;22475;51.390;7.180;2022-11-20T04:57:12;18.92;;;11.68;;
36449;SDS011;22475;51.390;7.180;2022-11-20T04:59:40;19.73;;;10.25;;
36449;SDS011;22475;51.390;7.180;2022-11-20T05:02:07;23.15;;;11.75;;
36449;SDS011;22475;51.390;7.180;2022-11-20T05:04:34;18.13;;;9.93;;
36449;SDS011;22475;51.390;7.180;2022-11-20T05:07:00;18.52;;;10.52;;
36449;SDS011;22475;51.390;7.180;2022-11-20T05:09:27;11.30;;;7.93;;
36449;SDS011;22475;51.390;7.180;2022-11-20T05:11:55;21.75;;;11.73;;
36449;SDS011;22475;51.390;7.180;2022-11-20T05:14:22;15.02;;;10.23;;
36449;SDS011;22475;51.390;7.180;2022-11-20T05:16:49;18.98;;;10.07;;
36449;SDS011;22475;51.390;7.180;2022-11-20T05:19:15;19.15;;;9.70;;
36449;SDS011;22475;51.390;7.180;2022-11-20T05:21:42;19.13;;;9.32;;
36449;SDS011;22475;51.390;7.180;2022-11-20T05:24:09;17.50;;;10.57;;
36449;SDS011;22475;51.390;7.180;2022-11-20T05:26:36;18.33;;;10.18;;
36449;SDS011;22475;51.390;7.180;2022-11-20T05:29:04;18.85;;;10.57;;
36449;SDS011;22475;51.390;7.180;2022-11-20T05:31:31;19.35;;;10.77;;
36449;SDS011;22475;51.390;7.180;2022-11-20T05:33:58;18.15;;;10.40;;
36449;SDS011;22475;51.390;7.180;2022-11-20T05:36:24;21.35;;;11.65;;
36449;SDS011;22475;51.390;7.180;2022-11-20T05:38:51;17.27;;;9.95;;
36449;SDS011;22475;51.390;7.180;2022-11-20T05:41:19;15.98;;;9.07;;
36449;SDS011;22475;51.390;7.180;2022-11-20T05:43:47;17.13;;;10.73;;
36449;SDS011;22475;51.390;7.180;2022-11-20T05:46:16;19.00;;;11.27;;
36449;SDS011;22475;51.390;7.180;2022-11-20T05:48:44;24.17;;;10.55;;
36449;SDS011;22475;51.390;7.180;2022-11-20T05:51:12;19.88;;;10.05;;
36449;SDS011;22475;51.390;7.180;2022-11-20T05:53:41;20.67;;;9.85;;
36449;SDS011;22475;51.390;7.180;2022-11-20T05:56:09;20.60;;;11.10;;
36449;SDS011;22475;51.390;7.180;2022-11-20T05:58:37;15.00;;;9.63;;
36449;SDS011;22475;51.390;7.180;2022-11-20T06:01:05;21.92;;;11.85;;
36449;SDS011;22475;51.390;7.180;2022-11-20T06:03:35;18.42;;;11.15;;
36449;SDS011;22475;51.390;7.180;2022-11-20T06:06:02;23.00;;;10.25;;
36449;SDS011;22475;51.390;7.180;2022-11-20T06:08:30;22.73;;;10.75;;
36449;SDS011;22475;51.390;7.180;2022-11-20T06:10:58;18.80;;;10.65;;
36449;SDS011;22475;51.390;7.180;2022-11-20T06:13:28;22.83;;;10.85;;
36449;SDS011;22475;51.390;7.180;2022-11-20T06:15:55;15.77;;;9.70;;
36449;SDS011;22475;51.390;7.180;2022-11-20T06:18:22;22.95;;;11.20;;
36449;SDS011;22475;51.390;7.180;2022-11-20T06:20:50;17.58;;;10.02;;
36449;SDS011;22475;51.390;7.180;2022-11-20T06:23:25;20.73;;;11.00;;
36449;SDS011;22475;51.390;7.180;2022-11-20T06:25:54;21.33;;;10.20;;
36449;SDS011;22475;51.390;7.180;2022-11-20T06:28:21;17.25;;;9.82;;
36449;SDS011;22475;51.390;7.180;2022-11-20T06:30:48;16.05;;;10.38;;
36449;SDS011;22475;51.390;7.180;2022-11-20T06:33:14;15.35;;;9.68;;
36449;SDS011;22475;51.390;7.180;2022-11-20T06:35:41;21.13;;;9.73;;
36449;SDS011;22475;51.390;7.180;2022-11-20T06:38:09;17.25;;;10.05;;
36449;SDS011;22475;51.390;7.180;2022-11-20T06:40:36;15.52;;;10.32;;
36449;SDS011;22475;51.390;7.180;2022-11-20T06:43:06;17.87;;;10.40;;
36449;SDS011;22475;51.390;7.180;2022-11-20T06:45:32;18.80;;;10.57;;
36449;SDS011;22475;51.390;7.180;2022-11-20T06:47:59;14.75;;;9.27;;
36449;SDS011;22475;51.390;7.180;2022-11-20T06:50:26;18.55;;;9.50;;
36449;SDS011;22475;51.390;7.180;2022-11-20T06:52:53;17.02;;;8.88;;
36449;SDS011;22475;51.390;7.180;2022-11-20T06:55:21;15.93;;;8.23;;
36449;SDS011;22475;51.390;7.180;2022-11-20T06:57:47;16.33;;;9.77;;
36449;SDS011;22475;51.390;7.180;2022-11-20T07:00:14;15.77;;;8.57;;
36449;SDS011;22475;51.390;7.180;2022-11-20T07:02:41;15.90;;;8.40;;
36449;SDS011;22475;51.390;7.180;2022-11-20T07:05:08;14.70;;;8.75;;
36449;SDS011;22475;51.390;7.180;2022-11-20T07:07:35;14.13;;;8.35;;
36449;SDS011;22475;51.390;7.180;2022-11-20T07:10:01;17.17;;;8.57;;
36449;SDS011;22475;51.390;7.180;2022-11-20T07:12:30;12.45;;;8.65;;
36449;SDS011;22475;51.390;7.180;2022-11-20T07:14:56;16.20;;;8.95;;
36449;SDS011;22475;51.390;7.180;2022-11-20T07:17:23;15.73;;;9.55;;
36449;SDS011;22475;51.390;7.180;2022-11-20T07:19:50;13.10;;;8.95;;
36449;SDS011;22475;51.390;7.180;2022-11-20T07:22:17;12.88;;;8.65;;
36449;SDS011;22475;51.390;7.180;2022-11-20T07:24:46;14.50;;;9.23;;
36449;SDS011;22475;51.390;7.180;2022-11-20T07:27:13;16.08;;;9.77;;
36449;SDS011;22475;51.390;7.180;2022-11-20T07:29:41;14.07;;;8.40;;
36449;SDS011;22475;51.390;7.180;2022-11-20T07:32:08;15.93;;;8.20;;
36449;SDS011;22475;51.390;7.180;2022-11-20T07:34:35;12.70;;;9.18;;
36449;SDS011;22475;51.390;7.180;2022-11-20T07:37:01;17.50;;;7.88;;
36449;SDS011;22475;51.390;7.180;2022-11-20T07:39:28;16.17;;;9.18;;
36449;SDS011;22475;51.390;7.180;2022-11-20T07:41:55;16.58;;;10.23;;
36449;SDS011;22475;51.390;7.180;2022-11-20T07:44:21;20.83;;;10.70;;
36449;SDS011;22475;51.390;7.180;2022-11-20T07:46:50;16.88;;;10.05;;
36449;SDS011;22475;51.390;7.180;2022-11-20T07:49:19;13.98;;;9.27;;
36449;SDS011;22475;51.390;7.180;2022-11-20T07:51:46;20.10;;;9.98;;
36449;SDS011;22475;51.390;7.180;2022-11-20T07:54:16;16.42;;;10.57;;
36449;SDS011;22475;51.390;7.180;2022-11-20T07:56:42;25.13;;;12.15;;
36449;SDS011;22475;51.390;7.180;2022-11-20T07:59:09;17.67;;;10.73;;
36449;SDS011;22475;51.390;7.180;2022-11-20T08:01:36;15.57;;;10.70;;
36449;SDS011;22475;51.390;7.180;2022-11-20T08:04:05;19.35;;;11.20;;
36449;SDS011;22475;51.390;7.180;2022-11-20T08:06:33;22.05;;;11.52;;
36449;SDS011;22475;51.390;7.180;2022-11-20T08:09:00;18.77;;;10.05;;
36449;SDS011;22475;51.390;7.180;2022-11-20T08:11:27;19.95;;;11.07;;
36449;SDS011;22475;51.390;7.180;2022-11-20T08:14:11;17.30;;;10.38;;
36449;SDS011;22475;51.390;7.180;2022-11-20T08:16:38;17.05;;;8.43;;
36449;SDS011;22475;51.390;7.180;2022-11-20T08:19:06;19.00;;;10.85;;
36449;SDS011;22475;51.390;7.180;2022-11-20T08:21:33;17.83;;;10.80;;
36449;SDS011;22475;51.390;7.180;2022-11-20T08:24:00;21.27;;;11.50;;
36449;SDS011;22475;51.390;7.180;2022-11-20T08:26:27;14.00;;;9.70;;
36449;SDS011;22475;51.390;7.180;2022-11-20T08:28:54;17.63;;;10.35;;
36449;SDS011;22475;51.390;7.180;2022-11-20T08:31:21;19.60;;;11.50;;
36449;SDS011;22475;51.390;7.180;2022-11-20T08:33:49;16.75;;;10.05;;
36449;SDS011;22475;51.390;7.180;2022-11-20T08:36:17;14.70;;;10.07;;
36449;SDS011;22475;51.390;7.180;2022-11-20T08:38:46;15.40;;;10.00;;
36449;SDS011;22475;51.390;7.180;2022-11-20T08:41:14;16.58;;;9.20;;
36449;SDS011;22475;51.390;7.180;2022-11-20T08:43:50;16.80;;;9.75;;
36449;SDS011;22475;51.390;7.180;2022-11-20T08:46:18;17.02;;;11.13;;
36449;SDS011;22475;51.390;7.180;2022-11-20T08:48:45;13.45;;;9.18;;
36449;SDS011;22475;51.390;7.180;2022-11-20T08:51:12;13.60;;;9.23;;
36449;SDS011;22475;51.390;7.180;2022-11-20T08:53:40;15.88;;;9.57;;
36449;SDS011;22475;51.390;7.180;2022-11-20T08:56:07;12.45;;;9.02;;
36449;SDS011;22475;51.390;7.180;2022-11-20T08:58:35;17.13;;;9.88;;
36449;SDS011;22475;51.390;7.180;2022-11-20T09:01:02;18.92;;;10.07;;
36449;SDS011;22475;51.390;7.180;2022-11-20T09:03:29;18.95;;;10.02;;
36449;SDS011;22475;51.390;7.180;2022-11-20T09:05:57;17.05;;;10.43;;
36449;SDS011;22475;51.390;7.180;2022-11-20T09:08:25;18.13;;;11.63;;
36449;SDS011;22475;51.390;7.180;2022-11-20T09:10:53;19.35;;;11.13;;
36449;SDS011;22475;51.390;7.180;2022-11-20T09:13:21;22.95;;;14.10;;
36449;SDS011;22475;51.390;7.180;2022-11-20T09:15:52;25.95;;;12.23;;
36449;SDS011;22475;51.390;7.180;2022-11-20T09:20:46;20.50;;;11.02;;
36449;SDS011;22475;51.390;7.180;2022-11-20T09:23:13;21.42;;;10.27;;
36449;SDS011;22475;51.390;7.180;2022-11-20T09:25:39;19.63;;;12.63;;
36449;SDS011;22475;51.390;7.180;2022-11-20T09:28:07;17.45;;;11.65;;
36449;SDS011;22475;51.390;7.180;2022-11-20T09:30:35;20.67;;;12.02;;
36449;SDS011;22475;51.390;7.180;2022-11-20T09:33:03;19.77;;;12.00;;
36449;SDS011;22475;51.390;7.180;2022-11-20T09:35:30;23.38;;;12.70;;
36449;SDS011;22475;51.390;7.180;2022-11-20T09:37:57;23.13;;;12.13;;
36449;SDS011;22475;51.390;7.180;2022-11-20T09:40:24;27.85;;;13.50;;
36449;SDS011;22475;51.390;7.180;2022-11-20T09:42:54;22.10;;;12.93;;
36449;SDS011;22475;51.390;7.180;2022-11-20T09:45:28;22.77;;;12.55;;
36449;SDS011;22475;51.390;7.180;2022-11-20T09:48:11;21.38;;;12.23;;
36449;SDS011;22475;51.390;7.180;2022-11-20T09:50:47;23.27;;;12.23;;
36449;SDS011;22475;51.390;7.180;2022-11-20T09:53:20;26.13;;;12.77;;
36449;SDS011;22475;51.390;7.180;2022-11-20T09:55:54;17.50;;;10.02;;
36449;SDS011;22475;51.390;7.180;2022-11-20T09:58:24;18.08;;;11.23;;
36449;SDS011;22475;51.390;7.180;2022-11-20T10:00:57;19.08;;;10.55;;
36449;SDS011;22475;51.390;7.180;2022-11-20T10:03:39;17.70;;;9.80;;
36449;SDS011;22475;51.390;7.180;2022-11-20T10:06:17;14.68;;;9.77;;
36449;SDS011;22475;51.390;7.180;2022-11-20T10:08:48;45.20;;;8.88;;
36449;SDS011;22475;51.390;7.180;2022-11-20T10:11:29;19.27;;;9.73;;
36449;SDS011;22475;51.390;7.180;2022-11-20T10:14:08;28.35;;;9.20;;
36449;SDS011;22475;51.390;7.180;2022-11-20T10:16:45;27.05;;;9.60;;
36449;SDS011;22475;51.390;7.180;2022-11-20T10:19:23;15.30;;;6.82;;
36449;SDS011;22475;51.390;7.180;2022-11-20T10:22:16;13.10;;;6.28;;
36449;SDS011;22475;51.390;7.180;2022-11-20T10:24:53;10.52;;;7.15;;
36449;SDS011;22475;51.390;7.180;2022-11-20T10:27:30;10.27;;;7.50;;
36449;SDS011;22475;51.390;7.180;2022-11-20T10:30:17;22.48;;;7.45;;
36449;SDS011;22475;51.390;7.180;2022-11-20T10:32:48;19.00;;;5.87;;
36449;SDS011;22475;51.390;7.180;2022-11-20T10:35:20;6.50;;;5.60;;
36449;SDS011;22475;51.390;7.180;2022-11-20T10:37:51;9.35;;;6.03;;
36449;SDS011;22475;51.390;7.180;2022-11-20T10:40:23;13.38;;;6.70;;
36449;SDS011;22475;51.390;7.180;2022-11-20T10:42:55;11.88;;;6.20;;
36449;SDS011;22475;51.390;7.180;2022-11-20T10:48:19;9.88;;;5.82;;
36449;SDS011;22475;51.390;7.180;2022-11-20T10:50:59;6.35;;;5.20;;
36449;SDS011;22475;51.390;7.180;2022-11-20T10:53:44;12.50;;;6.28;;
36449;SDS011;22475;51.390;7.180;2022-11-20T10:56:19;11.98;;;5.63;;
36449;SDS011;22475;51.390;7.180;2022-11-20T10:58:52;8.73;;;5.35;;
36449;SDS011;22475;51.390;7.180;2022-11-20T11:01:29;10.40;;;5.25;;
36449;SDS011;22475;51.390;7.180;2022-11-20T11:03:57;8.23;;;5.50;;
36449;SDS011;22475;51.390;7.180;2022-11-20T11:06:26;10.95;;;5.70;;
36449;SDS011;22475;51.390;7.180;2022-11-20T11:09:01;8.18;;;5.93;;
36449;SDS011;22475;51.390;7.180;2022-11-20T11:11:34;7.32;;;4.60;;
36449;SDS011;22475;51.390;7.180;2022-11-20T11:14:04;11.48;;;6.72;;
36449;SDS011;22475;51.390;7.180;2022-11-20T11:16:32;10.20;;;5.90;;
36449;SDS011;22475;51.390;7.180;2022-11-20T11:19:07;6.30;;;4.95;;
36449;SDS011;22475;51.390;7.180;2022-11-20T11:21:43;8.50;;;6.07;;
36449;SDS011;22475;51.390;7.180;2022-11-20T11:24:15;7.85;;;5.55;;
36449;SDS011;22475;51.390;7.180;2022-11-20T11:26:51;9.93;;;6.47;;
36449;SDS011;22475;51.390;7.180;2022-11-20T11:29:21;9.25;;;5.53;;
36449;SDS011;22475;51.390;7.180;2022-11-20T11:31:48;4.85;;;4.43;;
36449;SDS011;22475;51.390;7.180;2022-11-20T11:34:17;7.22;;;5.10;;
36449;SDS011;22475;51.390;7.180;2022-11-20T11:36:48;9.82;;;6.20;;
36449;SDS011;22475;51.390;7.180;2022-11-20T11:39:20;7.10;;;4.95;;
36449;SDS011;22475;51.390;7.180;2022-11-20T11:41:47;11.00;;;6.78;;
36449;SDS011;22475;51.390;7.180;2022-11-20T11:44:15;10.02;;;6.40;;
36449;SDS011;22475;51.390;7.180;2022-11-20T11:47:02;8.63;;;6.35;;
36449;SDS011;22475;51.390;7.180;2022-11-20T11:49:33;11.35;;;6.28;;
36449;SDS011;22475;51.390;7.180;2022-11-20T11:52:01;13.32;;;6.38;;
36449;SDS011;22475;51.390;7.180;2022-11-20T11:54:35;6.88;;;5.00;;
36449;SDS011;22475;51.390;7.180;2022-11-20T11:57:09;10.57;;;5.68;;
36449;SDS011;22475;51.390;7.180;2022-11-20T11:59:54;9.82;;;6.60;;
36449;SDS011;22475;51.390;7.180;2022-11-20T12:02:32;5.85;;;4.03;;
36449;SDS011;22475;51.390;7.180;2022-11-20T12:05:08;8.85;;;6.15;;
36449;SDS011;22475;51.390;7.180;2022-11-20T12:07:43;14.02;;;6.80;;
36449;SDS011;22475;51.390;7.180;2022-11-20T12:10:15;12.27;;;7.45;;
36449;SDS011;22475;51.390;7.180;2022-11-20T12:12:47;11.18;;;7.10;;
36449;SDS011;22475;51.390;7.180;2022-11-20T12:15:22;14.48;;;7.50;;
36449;SDS011;22475;51.390;7.180;2022-11-20T12:17:52;11.68;;;6.30;;
36449;SDS011;22475;51.390;7.180;2022-11-20T12:20:20;11.32;;;5.90;;
36449;SDS011;22475;51.390;7.180;2022-11-20T12:22:52;11.60;;;7.82;;
36449;SDS011;22475;51.390;7.180;2022-11-20T12:25:27;16.63;;;8.45;;
36449;SDS011;22475;51.390;7.180;2022-11-20T12:28:10;14.13;;;7.63;;
36449;SDS011;22475;51.390;7.180;2022-11-20T12:30:58;12.95;;;7.47;;
36449;SDS011;22475;51.390;7.180;2022-11-20T12:33:40;15.15;;;8.50;;
36449;SDS011;22475;51.390;7.180;2022-11-20T12:36:32;14.20;;;8.75;;
36449;SDS011;22475;51.390;7.180;2022-11-20T12:39:18;12.73;;;7.05;;
36449;SDS011;22475;51.390;7.180;2022-11-20T12:42:05;8.18;;;5.90;;
36449;SDS011;22475;51.390;7.180;2022-11-20T12:45:14;16.50;;;8.23;;
36449;SDS011;22475;51.390;7.180;2022-11-20T12:47:55;17.08;;;10.43;;
36449;SDS011;22475;51.390;7.180;2022-11-20T12:50:39;7.10;;;4.53;;
36449;SDS011;22475;51.390;7.180;2022-11-20T12:53:20;18.60;;;7.90;;
36449;SDS011;22475;51.390;7.180;2022-11-20T12:55:54;14.52;;;8.15;;
36449;SDS011;22475;51.390;7.180;2022-11-20T12:58:28;13.93;;;7.70;;
36449;SDS011;22475;51.390;7.180;2022-11-20T13:01:03;17.80;;;7.40;;
36449;SDS011;22475;51.390;7.180;2022-11-20T13:04:12;15.85;;;7.53;;
36449;SDS011;22475;51.390;7.180;2022-11-20T13:06:50;18.95;;;9.65;;
36449;SDS011;22475;51.390;7.180;2022-11-20T13:09:18;20.17;;;11.07;;
36449;SDS011;22475;51.390;7.180;2022-11-20T13:11:50;28.92;;;15.23;;
36449;SDS011;22475;51.390;7.180;2022-11-20T13:14:26;32.33;;;14.90;;
36449;SDS011;22475;51.390;7.180;2022-11-20T13:17:00;21.98;;;10.75;;
36449;SDS011;22475;51.390;7.180;2022-11-20T13:19:34;17.17;;;9.32;;
36449;SDS011;22475;51.390;7.180;2022-11-20T13:22:01;19.73;;;9.18;;
36449;SDS011;22475;51.390;7.180;2022-11-20T13:24:30;18.30;;;11.02;;
36449;SDS011;22475;51.390;7.180;2022-11-20T13:27:02;18.67;;;9.23;;
36449;SDS011;22475;51.390;7.180;2022-11-20T13:29:30;19.63;;;10.85;;
36449;SDS011;22475;51.390;7.180;2022-11-20T13:32:04;20.33;;;9.45;;
36449;SDS011;22475;51.390;7.180;2022-11-20T13:34:33;19.48;;;10.07;;
36449;SDS011;22475;51.390;7.180;2022-11-20T13:37:00;17.15;;;9.75;;
36449;SDS011;22475;51.390;7.180;2022-11-20T13:39:31;16.40;;;9.85;;
36449;SDS011;22475;51.390;7.180;2022-11-20T13:41:59;17.67;;;10.10;;
36449;SDS011;22475;51.390;7.180;2022-11-20T13:44:29;18.73;;;10.10;;
36449;SDS011;22475;51.390;7.180;2022-11-20T13:47:03;18.95;;;10.32;;
36449;SDS011;22475;51.390;7.180;2022-11-20T13:49:31;15.82;;;9.43;;
36449;SDS011;22475;51.390;7.180;2022-11-20T13:52:04;17.58;;;10.20;;
36449;SDS011;22475;51.390;7.180;2022-11-20T13:55:05;24.48;;;10.75;;
36449;SDS011;22475;51.390;7.180;2022-11-20T13:57:46;18.40;;;9.80;;
36449;SDS011;22475;51.390;7.180;2022-11-20T14:00:32;15.93;;;9.38;;
36449;SDS011;22475;51.390;7.180;2022-11-20T14:03:09;19.13;;;10.52;;
36449;SDS011;22475;51.390;7.180;2022-11-20T14:05:46;21.52;;;10.25;;
36449;SDS011;22475;51.390;7.180;2022-11-20T14:08:21;23.00;;;10.45;;
36449;SDS011;22475;51.390;7.180;2022-11-20T14:11:03;16.48;;;9.05;;
36449;SDS011;22475;51.390;7.180;2022-11-20T14:13:30;17.92;;;9.43;;
36449;SDS011;22475;51.390;7.180;2022-11-20T14:15:57;19.27;;;9.98;;
36449;SDS011;22475;51.390;7.180;2022-11-20T14:18:25;21.25;;;10.60;;
36449;SDS011;22475;51.390;7.180;2022-11-20T14:20:52;17.30;;;10.25;;
36449;SDS011;22475;51.390;7.180;2022-11-20T14:23:25;13.48;;;7.15;;
36449;SDS011;22475;51.390;7.180;2022-11-20T14:25:53;20.08;;;10.00;;
36449;SDS011;22475;51.390;7.180;2022-11-20T14:28:24;17.80;;;9.38;;
36449;SDS011;22475;51.390;7.180;2022-11-20T14:30:52;19.98;;;10.88;;
36449;SDS011;22475;51.390;7.180;2022-11-20T14:33:21;20.63;;;10.10;;
36449;SDS011;22475;51.390;7.180;2022-11-20T14:35:50;23.98;;;11.07;;
36449;SDS011;22475;51.390;7.180;2022-11-20T14:38:20;20.92;;;10.60;;
36449;SDS011;22475;51.390;7.180;2022-11-20T14:40:50;23.05;;;12.27;;
36449;SDS011;22475;51.390;7.180;2022-11-20T14:43:18;22.95;;;11.57;;
36449;SDS011;22475;51.390;7.180;2022-11-20T14:45:54;21.98;;;12.02;;
36449;SDS011;22475;51.390;7.180;2022-11-20T14:48:24;21.15;;;9.32;;
36449;SDS011;22475;51.390;7.180;2022-11-20T14:50:55;17.67;;;9.82;;
36449;SDS011;22475;51.390;7.180;2022-11-20T14:53:23;18.80;;;10.10;;
36449;SDS011;22475;51.390;7.180;2022-11-20T14:55:54;16.50;;;9.10;;